createdAt,value
2022-11-29T00:01:25.447Z,8.17
2022-11-29T00:03:53.776Z,7.03
2022-11-29T00:06:24.650Z,7.20
2022-11-29T00:08:51.996Z,7.73
2022-11-29T00:11:42.080Z,7.57
2022-11-29T00:14:15.057Z,8.77
2022-11-29T00:16:43.132Z,7.33
2022-11-29T00:19:12.544Z,8.90
2022-11-29T00:21:40.158Z,7.00
2022-11-29T00:24:07.749Z,7.57
2022-11-29T00:26:37.037Z,6.57
2022-11-29T00:29:04.642Z,7.77
2022-11-29T00:31:33.615Z,7.22
2022-11-29T00:34:03.296Z,7.07
2022-11-29T00:36:30.836Z,7.22
2022-11-29T00:38:59.143Z,7.57
2022-11-29T00:41:26.618Z,7.73
2022-11-29T00:43:54.415Z,7.57
2022-11-29T00:46:22.043Z,7.10
2022-11-29T00:48:49.637Z,7.63
2022-11-29T00:51:17.044Z,7.20
2022-11-29T00:53:44.464Z,7.43
2022-11-29T00:56:12.119Z,7.43
2022-11-29T00:58:39.536Z,8.77
2022-11-29T01:01:06.971Z,8.98
2022-11-29T01:03:34.445Z,8.20
2022-11-29T01:06:08.128Z,7.97
2022-11-29T01:08:35.837Z,7.40
2022-11-29T01:11:15.686Z,7.78
2022-11-29T01:13:44.988Z,7.63
2022-11-29T01:16:13.412Z,8.70
2022-11-29T01:18:41.390Z,8.47
2022-11-29T01:21:12.558Z,8.33
2022-11-29T01:23:40.880Z,9.50
2022-11-29T01:26:32.968Z,8.93
2022-11-29T01:29:00.625Z,8.17
2022-11-29T01:31:31.231Z,8.05
2022-11-29T01:34:00.951Z,7.97
2022-11-29T01:36:28.788Z,8.57
2022-11-29T01:38:56.528Z,8.57
2022-11-29T01:41:26.612Z,8.45
2022-11-29T01:44:22.509Z,6.95
2022-11-29T01:46:49.948Z,9.60
2022-11-29T01:49:33.840Z,8.00
2022-11-29T01:52:08.776Z,8.83
2022-11-29T01:54:40.540Z,7.20
2022-11-29T01:57:09.920Z,9.50
2022-11-29T01:59:44.944Z,9.07
2022-11-29T02:02:22.173Z,8.90
2022-11-29T02:04:50.458Z,8.77
2022-11-29T02:07:17.864Z,8.80
2022-11-29T02:09:45.360Z,9.57
2022-11-29T02:12:31.695Z,9.07
2022-11-29T02:15:27.184Z,8.30
2022-11-29T02:18:06.726Z,9.53
2022-11-29T02:21:12.756Z,10.10
2022-11-29T02:24:22.656Z,8.80
2022-11-29T02:27:23.706Z,8.37
2022-11-29T02:30:29.141Z,8.97
2022-11-29T02:33:30.331Z,8.47
2022-11-29T03:03:12.699Z,10.03
2022-11-29T03:12:39.121Z,9.83
2022-11-29T03:15:36.989Z,9.23
2022-11-29T03:18:46.075Z,11.43
2022-11-29T03:21:19.581Z,9.30
2022-11-29T03:23:54.887Z,10.43
2022-11-29T03:26:35.446Z,9.97
2022-11-29T03:29:23.623Z,9.23
2022-11-29T03:32:07.310Z,10.07
2022-11-29T03:35:27.095Z,8.53
2022-11-29T03:38:15.222Z,10.57
2022-11-29T03:40:52.250Z,9.33
2022-11-29T03:43:36.871Z,10.77
2022-11-29T03:46:15.817Z,11.03
2022-11-29T03:48:49.755Z,9.40
2022-11-29T03:52:00.250Z,11.43
2022-11-29T03:54:43.250Z,10.83
2022-11-29T03:57:13.300Z,9.67
2022-11-29T04:00:06.794Z,11.13
2022-11-29T04:03:01.220Z,10.37
2022-11-29T04:05:46.691Z,10.40
2022-11-29T04:09:02.175Z,10.90
2022-11-29T04:11:59.070Z,9.67
2022-11-29T04:14:59.027Z,10.97
2022-11-29T04:18:08.313Z,10.23
2022-11-29T04:21:12.593Z,9.00
2022-11-29T04:24:12.343Z,8.40
2022-11-29T04:27:31.022Z,9.73
2022-11-29T04:30:04.207Z,9.83
2022-11-29T04:33:14.150Z,10.50
2022-11-29T04:36:25.448Z,12.67
2022-11-29T04:39:17.384Z,10.37
2022-11-29T04:42:20.101Z,11.27
2022-11-29T04:45:16.496Z,10.27
2022-11-29T04:48:04.484Z,9.23
2022-11-29T04:50:56.670Z,9.50
2022-11-29T04:54:18.147Z,8.77
2022-11-29T04:56:52.883Z,9.40
2022-11-29T04:59:49.472Z,9.67
2022-11-29T05:02:47.480Z,8.73
2022-11-29T05:05:48.535Z,8.33
2022-11-29T05:08:56.133Z,9.30
2022-11-29T05:11:36.741Z,8.97
2022-11-29T05:14:27.179Z,9.23
2022-11-29T05:17:25.878Z,9.83
2022-11-29T05:20:21.567Z,10.53
2022-11-29T05:23:26.583Z,10.87
2022-11-29T05:26:22.801Z,9.07
2022-11-29T05:29:08.717Z,10.10
2022-11-29T05:31:40.949Z,9.93
2022-11-29T05:35:05.400Z,9.93
2022-11-29T05:37:52.749Z,9.27
2022-11-29T05:41:03.500Z,8.97
2022-11-29T05:44:07.532Z,9.13
2022-11-29T05:46:56.837Z,9.50
2022-11-29T05:49:53.981Z,9.67
2022-11-29T05:52:43.869Z,9.27
2022-11-29T05:55:51.724Z,9.90
2022-11-29T06:02:18.083Z,8.77
2022-11-29T06:08:21.185Z,8.90
2022-11-29T06:11:05.965Z,8.63
2022-11-29T06:14:08.113Z,8.93
2022-11-29T06:17:18.762Z,8.63
2022-11-29T06:20:24.934Z,8.17
2022-11-29T06:30:04.277Z,10.20
2022-11-29T06:32:46.442Z,8.03
2022-11-29T06:35:40.027Z,9.02
2022-11-29T06:38:25.947Z,8.33
2022-11-29T06:41:00.104Z,7.97
2022-11-29T06:43:29.980Z,8.53
2022-11-29T06:46:22.945Z,8.00
2022-11-29T06:49:11.577Z,8.20
2022-11-29T06:52:16.346Z,9.10
2022-11-29T06:55:14.602Z,8.13
2022-11-29T06:58:02.028Z,8.00
2022-11-29T07:00:47.638Z,7.77
2022-11-29T07:03:27.627Z,7.77
2022-11-29T07:05:55.975Z,7.50
2022-11-29T07:08:24.542Z,8.87
2022-11-29T07:10:54.945Z,7.60
2022-11-29T07:13:22.893Z,8.40
2022-11-29T07:16:22.387Z,7.60
2022-11-29T07:19:19.021Z,7.83
2022-11-29T07:21:55.350Z,7.93
2022-11-29T07:25:02.302Z,8.30
2022-11-29T07:28:26.168Z,7.23
2022-11-29T07:31:43.081Z,8.30
2022-11-29T07:34:45.197Z,7.67
2022-11-29T07:37:54.577Z,8.90
2022-11-29T07:40:41.668Z,7.63
2022-11-29T07:43:41.823Z,7.87
2022-11-29T07:46:09.465Z,7.73
2022-11-29T07:48:36.945Z,7.10
2022-11-29T07:51:04.730Z,8.53
2022-11-29T07:53:33.230Z,6.73
2022-11-29T07:56:00.858Z,8.13
2022-11-29T07:58:28.670Z,7.50
2022-11-29T08:00:56.164Z,8.87
2022-11-29T08:03:23.763Z,8.80
2022-11-29T08:05:51.229Z,7.43
2022-11-29T08:08:18.926Z,6.83
2022-11-29T08:10:48.300Z,7.50
2022-11-29T08:13:16.013Z,7.83
2022-11-29T08:15:46.946Z,8.37
2022-11-29T08:18:15.919Z,6.20
2022-11-29T08:20:43.936Z,7.47
2022-11-29T08:23:13.449Z,7.60
2022-11-29T08:25:41.296Z,6.23
2022-11-29T08:28:09.557Z,7.20
2022-11-29T08:30:37.302Z,8.77
2022-11-29T08:33:04.805Z,8.17
2022-11-29T08:35:34.384Z,7.37
2022-11-29T08:38:02.059Z,6.50
2022-11-29T08:40:29.775Z,7.70
2022-11-29T08:43:00.286Z,7.30
2022-11-29T08:45:28.172Z,6.73
2022-11-29T08:47:55.784Z,5.90
2022-11-29T08:50:23.498Z,6.77
2022-11-29T08:53:10.057Z,8.03
2022-11-29T08:55:40.714Z,6.00
2022-11-29T08:58:11.704Z,6.37
2022-11-29T09:00:40.603Z,7.40
2022-11-29T09:03:27.031Z,6.57
2022-11-29T09:05:54.953Z,6.43
2022-11-29T09:08:22.661Z,6.73
2022-11-29T09:10:50.605Z,6.80
2022-11-29T09:13:18.352Z,5.43
2022-11-29T09:15:45.895Z,7.57
2022-11-29T09:18:13.420Z,6.43
2022-11-29T09:20:44.215Z,6.40
2022-11-29T09:23:13.246Z,5.67
2022-11-29T09:25:40.817Z,6.20
2022-11-29T09:28:08.744Z,7.33
2022-11-29T09:30:38.570Z,6.20
2022-11-29T09:33:06.686Z,5.70
2022-11-29T09:35:35.191Z,7.03
2022-11-29T09:38:02.702Z,6.00
2022-11-29T09:40:55.062Z,5.60
2022-11-29T09:44:11.665Z,6.70
2022-11-29T09:46:58.795Z,5.60
2022-11-29T09:50:04.005Z,7.00
2022-11-29T09:52:52.122Z,5.77
2022-11-29T09:56:03.048Z,5.50
2022-11-29T09:58:38.259Z,4.50
2022-11-29T10:01:10.312Z,5.10
2022-11-29T10:06:29.275Z,6.97
2022-11-29T10:09:32.223Z,5.80
2022-11-29T10:12:20.472Z,4.97
2022-11-29T10:15:02.329Z,5.10
2022-11-29T10:18:06.427Z,6.50
2022-11-29T10:20:43.492Z,5.00
2022-11-29T10:23:33.169Z,5.70
2022-11-29T10:26:00.688Z,5.50
2022-11-29T10:28:31.427Z,5.13
2022-11-29T10:31:08.609Z,5.47
2022-11-29T10:33:40.653Z,4.93
2022-11-29T10:36:41.802Z,5.50
2022-11-29T10:39:39.790Z,5.40
2022-11-29T10:42:36.274Z,6.18
2022-11-29T10:45:11.207Z,5.50
2022-11-29T10:47:38.945Z,5.20
2022-11-29T10:50:07.341Z,4.93
2022-11-29T10:53:06.080Z,5.25
2022-11-29T10:55:50.180Z,7.20
2022-11-29T10:58:29.025Z,5.43
2022-11-29T11:01:07.759Z,6.40
2022-11-29T11:03:39.747Z,6.10
2022-11-29T11:06:20.880Z,5.70
2022-11-29T11:09:31.756Z,7.38
2022-11-29T11:12:02.947Z,5.60
2022-11-29T11:14:34.624Z,5.30
2022-11-29T11:17:28.123Z,6.07
2022-11-29T11:20:18.841Z,6.28
2022-11-29T11:22:58.916Z,5.68
2022-11-29T11:25:30.364Z,5.68
2022-11-29T11:28:17.239Z,7.45
2022-11-29T11:30:52.104Z,6.70
2022-11-29T11:33:31.366Z,6.60
2022-11-29T11:36:22.449Z,4.97
2022-11-29T11:38:58.806Z,8.05
2022-11-29T11:41:54.109Z,6.53
2022-11-29T11:44:50.565Z,6.85
2022-11-29T11:47:29.861Z,6.22
2022-11-29T11:50:13.508Z,6.88
2022-11-29T11:52:50.636Z,6.03
2022-11-29T11:55:35.431Z,6.53
2022-11-29T11:58:18.484Z,5.43
2022-11-29T12:01:17.261Z,7.18
2022-11-29T12:03:51.000Z,5.43
2022-11-29T12:06:31.487Z,6.53
2022-11-29T12:09:30.296Z,6.22
2022-11-29T12:12:23.765Z,7.03
2022-11-29T12:15:22.221Z,6.13
2022-11-29T12:18:13.067Z,7.38
2022-11-29T12:21:13.257Z,6.68
2022-11-29T12:23:53.829Z,6.38
2022-11-29T12:26:58.275Z,5.78
2022-11-29T12:29:29.897Z,6.30
2022-11-29T12:32:29.244Z,7.05
2022-11-29T12:35:29.450Z,5.97
2022-11-29T12:38:33.972Z,7.40
2022-11-29T12:41:40.696Z,6.57
2022-11-29T12:44:20.383Z,7.30
2022-11-29T12:47:35.320Z,7.38
2022-11-29T12:50:31.457Z,7.53
2022-11-29T12:53:37.452Z,6.05
2022-11-29T12:56:40.474Z,7.45
2022-11-29T12:59:34.085Z,5.78
2022-11-29T13:02:49.146Z,5.75
2022-11-29T13:06:01.233Z,7.50
2022-11-29T13:09:12.584Z,5.88
2022-11-29T13:11:51.277Z,6.63
2022-11-29T13:14:43.386Z,6.15
2022-11-29T13:19:55.681Z,6.97
2022-11-29T13:22:46.032Z,6.35
2022-11-29T13:25:24.741Z,7.32
2022-11-29T13:27:59.060Z,6.70
2022-11-29T13:30:26.859Z,6.03
2022-11-29T13:33:25.472Z,5.18
2022-11-29T13:36:06.499Z,7.43
2022-11-29T13:38:46.003Z,6.93
2022-11-29T13:42:05.741Z,7.00
2022-11-29T13:44:55.636Z,7.85
2022-11-29T13:47:23.150Z,7.10
2022-11-29T13:49:58.785Z,6.25
2022-11-29T13:52:47.262Z,8.40
2022-11-29T13:55:28.957Z,7.60
2022-11-29T13:58:20.690Z,8.77
2022-11-29T14:00:51.852Z,6.90
2022-11-29T14:03:57.487Z,8.60
2022-11-29T14:06:37.298Z,7.72
2022-11-29T14:09:25.428Z,7.47
2022-11-29T14:12:16.951Z,7.35
2022-11-29T14:15:04.715Z,7.80
2022-11-29T14:18:08.218Z,8.70
2022-11-29T14:20:55.111Z,6.60
2022-11-29T14:23:43.017Z,7.05
2022-11-29T14:26:28.312Z,7.28
2022-11-29T14:28:56.818Z,8.77
2022-11-29T14:31:47.844Z,8.82
2022-11-29T14:34:21.940Z,8.35
2022-11-29T14:37:06.601Z,8.38
2022-11-29T14:39:47.067Z,8.02
2022-11-29T14:42:19.233Z,8.68
2022-11-29T14:47:37.177Z,7.93
2022-11-29T14:50:10.504Z,7.23
2022-11-29T14:52:51.207Z,7.07
2022-11-29T14:55:38.982Z,9.07
2022-11-29T14:58:17.971Z,8.07
2022-11-29T15:00:55.721Z,8.30
2022-11-29T15:03:33.972Z,7.93
2022-11-29T15:06:11.822Z,8.18
2022-11-29T15:08:50.243Z,7.53
2022-11-29T15:12:02.757Z,7.47
2022-11-29T15:15:11.164Z,7.40
2022-11-29T15:18:02.962Z,6.60
2022-11-29T15:21:18.015Z,7.88
2022-11-29T15:23:45.398Z,7.57
2022-11-29T15:26:21.262Z,8.90
2022-11-29T15:28:48.660Z,8.57
2022-11-29T15:31:20.284Z,8.07
2022-11-29T15:33:49.544Z,8.93
2022-11-29T15:36:22.529Z,7.85
2022-11-29T15:38:55.063Z,7.70
2022-11-29T15:41:33.922Z,7.33
2022-11-29T15:44:06.156Z,7.83
2022-11-29T15:46:35.629Z,7.83
2022-11-29T15:49:16.042Z,9.63
2022-11-29T15:51:45.364Z,8.00
2022-11-29T15:54:26.583Z,8.90
2022-11-29T15:57:00.867Z,8.03
2022-11-29T15:59:45.908Z,9.50
2022-11-29T16:02:26.074Z,7.80
2022-11-29T16:04:57.062Z,8.10
2022-11-29T16:07:25.978Z,8.63
2022-11-29T16:10:01.869Z,8.53
2022-11-29T16:12:29.416Z,7.47
2022-11-29T16:15:00.165Z,8.67
2022-11-29T16:17:33.757Z,8.40
2022-11-29T16:20:24.262Z,8.73
2022-11-29T16:23:11.808Z,8.33
2022-11-29T16:26:14.934Z,8.07
2022-11-29T16:28:45.210Z,8.90
2022-11-29T16:31:30.395Z,8.90
2022-11-29T16:34:05.828Z,9.80
2022-11-29T16:36:33.305Z,8.77
2022-11-29T16:39:16.711Z,8.50
2022-11-29T16:41:44.563Z,9.30
2022-11-29T16:45:00.282Z,8.10
2022-11-29T16:47:30.379Z,8.70
2022-11-29T16:50:24.885Z,9.40
2022-11-29T16:52:56.581Z,9.97
2022-11-29T16:55:24.765Z,8.90
2022-11-29T16:57:52.509Z,9.87
2022-11-29T17:00:29.737Z,9.40
2022-11-29T17:02:57.605Z,10.80
2022-11-29T17:05:25.370Z,9.63
2022-11-29T17:07:53.154Z,9.30
2022-11-29T17:10:23.930Z,10.10
2022-11-29T17:12:51.493Z,8.97
2022-11-29T17:15:18.923Z,9.40
2022-11-29T17:17:46.326Z,9.70
2022-11-29T17:20:14.192Z,9.63
2022-11-29T17:22:41.913Z,10.10
2022-11-29T17:25:10.124Z,9.23
2022-11-29T17:27:37.624Z,9.03
2022-11-29T17:30:07.200Z,9.47
2022-11-29T17:32:35.780Z,10.60
2022-11-29T17:35:03.955Z,9.90
2022-11-29T17:37:31.404Z,9.43
2022-11-29T17:39:58.814Z,8.60
2022-11-29T17:42:26.238Z,7.20
2022-11-29T17:44:53.632Z,9.50
2022-11-29T17:47:21.036Z,8.70
2022-11-29T17:49:48.710Z,7.77
2022-11-29T17:52:16.247Z,8.77
2022-11-29T17:54:44.211Z,8.33
2022-11-29T17:57:11.731Z,9.40
2022-11-29T17:59:39.391Z,9.40
2022-11-29T18:02:07.235Z,9.47
2022-11-29T18:04:35.215Z,8.73
2022-11-29T18:07:02.799Z,7.53
2022-11-29T18:09:30.190Z,9.37
2022-11-29T18:11:57.608Z,9.70
2022-11-29T18:14:28.375Z,8.95
2022-11-29T18:16:55.961Z,8.45
2022-11-29T18:19:23.685Z,8.47
2022-11-29T18:21:51.985Z,9.30
2022-11-29T18:24:19.699Z,9.13
2022-11-29T18:26:47.348Z,9.27
2022-11-29T18:29:14.990Z,10.30
2022-11-29T18:31:45.032Z,8.90
2022-11-29T18:34:14.228Z,7.90
2022-11-29T18:36:47.405Z,9.88
2022-11-29T18:39:17.367Z,8.98
2022-11-29T18:41:47.743Z,8.30
2022-11-29T18:44:17.611Z,9.47
2022-11-29T18:46:45.968Z,9.03
2022-11-29T18:49:16.041Z,8.50
2022-11-29T18:51:45.500Z,10.02
2022-11-29T18:54:14.903Z,9.67
2022-11-29T18:56:43.645Z,9.52
2022-11-29T18:59:14.747Z,9.68
2022-11-29T19:01:43.270Z,7.90
2022-11-29T19:04:14.014Z,8.90
2022-11-29T19:06:42.027Z,8.27
2022-11-29T19:09:15.416Z,8.80
2022-11-29T19:11:42.893Z,7.90
2022-11-29T19:14:12.016Z,9.07
2022-11-29T19:16:42.159Z,8.43
2022-11-29T19:19:09.992Z,9.07
2022-11-29T19:21:39.727Z,8.57
2022-11-29T19:24:14.034Z,9.75
2022-11-29T19:26:44.477Z,8.55
2022-11-29T19:29:13.843Z,9.43
2022-11-29T19:31:42.517Z,8.52
2022-11-29T19:34:11.081Z,9.67
2022-11-29T19:36:43.108Z,8.43
2022-11-29T19:39:12.982Z,10.43
2022-11-29T19:41:42.877Z,8.50
2022-11-29T19:44:10.948Z,8.57
2022-11-29T19:46:44.239Z,9.60
2022-11-29T19:49:12.733Z,8.67
2022-11-29T19:51:40.676Z,9.87
2022-11-29T19:54:09.645Z,9.50
2022-11-29T19:56:38.140Z,10.87
2022-11-29T19:59:06.747Z,10.83
2022-11-29T20:01:40.728Z,10.17
2022-11-29T20:04:10.098Z,9.83
2022-11-29T20:06:37.953Z,10.30
2022-11-29T20:09:06.489Z,9.73
2022-11-29T20:11:33.910Z,10.38
2022-11-29T20:14:03.170Z,10.00
2022-11-29T20:16:31.530Z,9.82
2022-11-29T20:18:59.446Z,9.50
2022-11-29T20:21:29.516Z,10.90
2022-11-29T20:24:05.744Z,11.13
2022-11-29T20:26:35.992Z,10.02
2022-11-29T20:29:04.908Z,9.53
2022-11-29T20:31:34.155Z,9.13
2022-11-29T20:34:01.913Z,9.02
2022-11-29T20:37:08.490Z,9.53
2022-11-29T20:40:02.088Z,10.23
2022-11-29T20:42:29.632Z,9.37
2022-11-29T20:44:59.417Z,10.10
2022-11-29T20:47:31.596Z,10.30
2022-11-29T20:52:45.615Z,10.57
2022-11-29T20:55:13.091Z,10.43
2022-11-29T20:57:40.599Z,10.43
2022-11-29T21:00:11.727Z,10.93
2022-11-29T21:02:39.482Z,10.60
2022-11-29T21:05:07.636Z,11.00
2022-11-29T21:07:35.327Z,12.23
2022-11-29T21:10:04.541Z,9.83
2022-11-29T21:12:32.544Z,10.13
2022-11-29T21:15:00.316Z,10.27
2022-11-29T21:17:33.457Z,9.87
2022-11-29T21:20:01.897Z,11.07
2022-11-29T21:22:53.978Z,10.23
2022-11-29T21:25:44.270Z,9.60
2022-11-29T21:28:14.353Z,10.37
2022-11-29T21:30:42.579Z,9.77
2022-11-29T21:33:10.648Z,10.40
2022-11-29T21:35:40.075Z,9.43
2022-11-29T21:38:13.384Z,9.00
2022-11-29T21:40:40.808Z,9.30
2022-11-29T21:43:08.204Z,8.70
2022-11-29T21:45:35.750Z,10.13
2022-11-29T21:48:03.147Z,10.40
2022-11-29T21:50:30.484Z,9.53
2022-11-29T21:52:57.875Z,9.03
2022-11-29T21:55:31.568Z,9.00
2022-11-29T21:57:59.558Z,9.57
2022-11-29T22:00:26.884Z,9.67
2022-11-29T22:02:56.414Z,8.80
2022-11-29T22:05:23.994Z,9.27
2022-11-29T22:07:55.661Z,7.60
2022-11-29T22:10:23.279Z,10.02
2022-11-29T22:12:52.565Z,9.50
2022-11-29T22:15:24.630Z,8.03
2022-11-29T22:17:53.594Z,9.00
2022-11-29T22:20:21.089Z,11.07
2022-11-29T22:22:48.911Z,9.50
2022-11-29T22:25:16.629Z,9.07
2022-11-29T22:27:43.960Z,8.83
2022-11-29T22:30:12.089Z,9.23
2022-11-29T22:32:39.427Z,9.50
2022-11-29T22:35:07.420Z,10.40
2022-11-29T22:37:34.784Z,8.53
2022-11-29T22:40:02.265Z,7.67
2022-11-29T22:42:29.673Z,9.60
2022-11-29T22:44:57.081Z,9.00
2022-11-29T22:47:24.503Z,11.13
2022-11-29T22:49:51.875Z,9.83
2022-11-29T22:52:19.291Z,8.67
2022-11-29T22:54:46.939Z,9.97
2022-11-29T22:57:14.526Z,8.17
2022-11-29T22:59:41.894Z,8.00
2022-11-29T23:02:09.282Z,8.83
2022-11-29T23:04:36.728Z,9.00
2022-11-29T23:07:04.267Z,10.13
2022-11-29T23:09:31.629Z,8.40
2022-11-29T23:11:58.970Z,7.90
2022-11-29T23:14:26.508Z,9.07
2022-11-29T23:16:53.952Z,7.70
2022-11-29T23:19:21.388Z,8.00
2022-11-29T23:21:49.081Z,8.37
2022-11-29T23:24:16.798Z,9.33
2022-11-29T23:26:46.318Z,8.57
2022-11-29T23:29:16.658Z,9.73
2022-11-29T23:31:44.678Z,7.73
2022-11-29T23:34:13.075Z,9.10
2022-11-29T23:36:40.438Z,8.27
2022-11-29T23:39:07.839Z,8.30
2022-11-29T23:41:36.593Z,8.37
2022-11-29T23:44:08.678Z,8.63
2022-11-29T23:49:03.680Z,7.60
2022-11-29T23:51:31.141Z,8.50
2022-11-29T23:53:58.754Z,7.90
2022-11-29T23:56:26.110Z,8.73
2022-11-29T23:58:53.428Z,7.80
